sensor_id;sensor_type;location;lat;lon;timestamp;pressure;altitude;pressure_sealevel;temperature;humidity
44663;BME280;30381;52.754;18.258;2023-04-23T00:01:25;100319.05;;;7.21;87.96
44663;BME280;30381;52.754;18.258;2023-04-23T00:03:56;100315.73;;;7.18;88.00
44663;BME280;30381;52.754;18.258;2023-04-23T00:06:23;100315.61;;;7.14;88.21
44663;BME280;30381;52.754;18.258;2023-04-23T00:08:53;100315.94;;;7.11;88.39
44663;BME280;30381;52.754;18.258;2023-04-23T00:11:20;100311.98;;;7.07;88.51
44663;BME280;30381;52.754;18.258;2023-04-23T00:13:46;100309.21;;;7.03;88.63
44663;BME280;30381;52.754;18.258;2023-04-23T00:16:14;100306.44;;;6.99;88.83
44663;BME280;30381;52.754;18.258;2023-04-23T00:18:40;100307.17;;;6.94;88.90
44663;BME280;30381;52.754;18.258;2023-04-23T00:21:06;100307.95;;;6.90;89.07
44663;BME280;30381;52.754;18.258;2023-04-23T00:23:34;100304.02;;;6.87;89.25
44663;BME280;30381;52.754;18.258;2023-04-23T00:26:00;100302.77;;;6.83;89.63
44663;BME280;30381;52.754;18.258;2023-04-23T00:28:26;100299.48;;;6.78;89.82
44663;BME280;30381;52.754;18.258;2023-04-23T00:30:52;100294.77;;;6.74;89.97
44663;BME280;30381;52.754;18.258;2023-04-23T00:33:19;100295.92;;;6.70;89.97
44663;BME280;30381;52.754;18.258;2023-04-23T00:35:45;100292.27;;;6.65;90.18
44663;BME280;30381;52.754;18.258;2023-04-23T00:38:11;100285.53;;;6.61;90.50
44663;BME280;30381;52.754;18.258;2023-04-23T00:40:39;100283.60;;;6.58;90.85
44663;BME280;30381;52.754;18.258;2023-04-23T00:43:06;100276.42;;;6.56;91.10
44663;BME280;30381;52.754;18.258;2023-04-23T00:45:34;100276.73;;;6.54;91.22
44663;BME280;30381;52.754;18.258;2023-04-23T00:48:01;100276.38;;;6.52;91.61
44663;BME280;30381;52.754;18.258;2023-04-23T00:50:40;100277.83;;;6.51;91.79
44663;BME280;30381;52.754;18.258;2023-04-23T00:53:06;100274.69;;;6.50;92.04
44663;BME280;30381;52.754;18.258;2023-04-23T00:55:33;100270.64;;;6.51;92.36
44663;BME280;30381;52.754;18.258;2023-04-23T00:58:00;100270.56;;;6.55;92.77
44663;BME280;30381;52.754;18.258;2023-04-23T01:00:26;100269.16;;;6.60;93.01
44663;BME280;30381;52.754;18.258;2023-04-23T01:02:52;100267.64;;;6.64;93.09
44663;BME280;30381;52.754;18.258;2023-04-23T01:05:20;100268.04;;;6.67;92.91
44663;BME280;30381;52.754;18.258;2023-04-23T01:07:57;100261.16;;;6.68;93.18
44663;BME280;30381;52.754;18.258;2023-04-23T01:10:24;100262.21;;;6.77;93.57
44663;BME280;30381;52.754;18.258;2023-04-23T01:12:50;100263.20;;;6.88;93.71
44663;BME280;30381;52.754;18.258;2023-04-23T01:15:17;100259.52;;;6.96;93.67
44663;BME280;30381;52.754;18.258;2023-04-23T01:17:43;100257.61;;;7.01;93.45
44663;BME280;30381;52.754;18.258;2023-04-23T01:20:10;100257.63;;;7.07;93.54
44663;BME280;30381;52.754;18.258;2023-04-23T01:22:37;100255.91;;;7.11;93.61
44663;BME280;30381;52.754;18.258;2023-04-23T01:25:03;100256.09;;;7.13;93.58
44663;BME280;30381;52.754;18.258;2023-04-23T01:27:29;100253.86;;;7.13;93.53
44663;BME280;30381;52.754;18.258;2023-04-23T01:29:56;100254.05;;;7.15;93.42
44663;BME280;30381;52.754;18.258;2023-04-23T01:32:23;100250.67;;;7.13;93.34
44663;BME280;30381;52.754;18.258;2023-04-23T01:34:49;100253.23;;;7.11;93.42
44663;BME280;30381;52.754;18.258;2023-04-23T01:37:28;100252.23;;;7.08;93.58
44663;BME280;30381;52.754;18.258;2023-04-23T01:39:54;100249.34;;;7.05;93.68
44663;BME280;30381;52.754;18.258;2023-04-23T01:42:21;100246.77;;;7.06;94.14
44663;BME280;30381;52.754;18.258;2023-04-23T01:44:58;100243.70;;;7.12;94.58
44663;BME280;30381;52.754;18.258;2023-04-23T01:47:25;100243.66;;;7.20;94.85
44663;BME280;30381;52.754;18.258;2023-04-23T01:49:51;100241.69;;;7.30;95.27
44663;BME280;30381;52.754;18.258;2023-04-23T01:52:18;100242.77;;;7.42;95.12
44663;BME280;30381;52.754;18.258;2023-04-23T01:54:45;100237.41;;;7.49;94.90
44663;BME280;30381;52.754;18.258;2023-04-23T01:57:13;100240.40;;;7.53;94.72
44663;BME280;30381;52.754;18.258;2023-04-23T01:59:39;100239.44;;;7.57;94.56
44663;BME280;30381;52.754;18.258;2023-04-23T02:02:06;100239.11;;;7.60;94.76
44663;BME280;30381;52.754;18.258;2023-04-23T02:04:37;100237.34;;;7.62;94.51
44663;BME280;30381;52.754;18.258;2023-04-23T02:07:03;100233.77;;;7.62;94.42
44663;BME280;30381;52.754;18.258;2023-04-23T02:09:30;100232.60;;;7.63;94.43
44663;BME280;30381;52.754;18.258;2023-04-23T02:11:56;100231.79;;;7.62;94.52
44663;BME280;30381;52.754;18.258;2023-04-23T02:14:22;100228.33;;;7.62;94.62
44663;BME280;30381;52.754;18.258;2023-04-23T02:16:49;100224.30;;;7.60;94.56
44663;BME280;30381;52.754;18.258;2023-04-23T02:19:16;100224.83;;;7.58;94.63
44663;BME280;30381;52.754;18.258;2023-04-23T02:21:44;100224.40;;;7.54;94.65
44663;BME280;30381;52.754;18.258;2023-04-23T02:24:11;100225.19;;;7.54;94.79
44663;BME280;30381;52.754;18.258;2023-04-23T02:26:37;100220.25;;;7.52;94.70
44663;BME280;30381;52.754;18.258;2023-04-23T02:29:03;100219.95;;;7.49;94.60
44663;BME280;30381;52.754;18.258;2023-04-23T02:31:29;100217.88;;;7.46;94.77
44663;BME280;30381;52.754;18.258;2023-04-23T02:33:55;100214.48;;;7.43;94.69
44663;BME280;30381;52.754;18.258;2023-04-23T02:36:21;100213.50;;;7.38;94.83
44663;BME280;30381;52.754;18.258;2023-04-23T02:38:48;100217.39;;;7.33;94.96
44663;BME280;30381;52.754;18.258;2023-04-23T02:41:16;100216.48;;;7.31;95.21
44663;BME280;30381;52.754;18.258;2023-04-23T02:43:42;100212.83;;;7.28;95.14
44663;BME280;30381;52.754;18.258;2023-04-23T02:46:16;100212.92;;;7.26;95.31
44663;BME280;30381;52.754;18.258;2023-04-23T02:48:42;100213.26;;;7.23;95.38
44663;BME280;30381;52.754;18.258;2023-04-23T02:51:11;100211.61;;;7.18;95.35
44663;BME280;30381;52.754;18.258;2023-04-23T02:53:37;100213.82;;;7.13;95.49
44663;BME280;30381;52.754;18.258;2023-04-23T02:56:04;100218.20;;;7.05;95.32
44663;BME280;30381;52.754;18.258;2023-04-23T02:58:30;100217.10;;;6.95;95.03
44663;BME280;30381;52.754;18.258;2023-04-23T03:00:56;100212.69;;;6.85;95.23
44663;BME280;30381;52.754;18.258;2023-04-23T03:03:26;100213.98;;;6.75;95.40
44663;BME280;30381;52.754;18.258;2023-04-23T03:06:00;100217.31;;;6.63;95.43
44663;BME280;30381;52.754;18.258;2023-04-23T03:08:28;100218.30;;;6.53;95.56
44663;BME280;30381;52.754;18.258;2023-04-23T03:10:54;100222.27;;;6.42;95.73
44663;BME280;30381;52.754;18.258;2023-04-23T03:13:20;100217.97;;;6.32;95.89
44663;BME280;30381;52.754;18.258;2023-04-23T03:15:47;100219.11;;;6.24;96.07
44663;BME280;30381;52.754;18.258;2023-04-23T03:18:14;100218.00;;;6.16;96.13
44663;BME280;30381;52.754;18.258;2023-04-23T03:20:40;100216.81;;;6.07;96.43
44663;BME280;30381;52.754;18.258;2023-04-23T03:23:07;100218.98;;;5.99;96.41
44663;BME280;30381;52.754;18.258;2023-04-23T03:25:34;100215.13;;;5.92;96.76
44663;BME280;30381;52.754;18.258;2023-04-23T03:28:01;100208.25;;;5.86;96.93
44663;BME280;30381;52.754;18.258;2023-04-23T03:30:29;100203.30;;;5.82;97.34
44663;BME280;30381;52.754;18.258;2023-04-23T03:32:56;100201.41;;;5.79;97.50
44663;BME280;30381;52.754;18.258;2023-04-23T03:35:23;100195.58;;;5.76;97.71
44663;BME280;30381;52.754;18.258;2023-04-23T03:37:51;100194.11;;;5.74;98.05
44663;BME280;30381;52.754;18.258;2023-04-23T03:40:18;100194.95;;;5.72;97.96
44663;BME280;30381;52.754;18.258;2023-04-23T03:42:46;100195.27;;;5.69;98.21
44663;BME280;30381;52.754;18.258;2023-04-23T03:45:15;100194.55;;;5.67;98.31
44663;BME280;30381;52.754;18.258;2023-04-23T03:47:42;100195.34;;;5.66;98.50
44663;BME280;30381;52.754;18.258;2023-04-23T03:50:12;100198.80;;;5.67;98.66
44663;BME280;30381;52.754;18.258;2023-04-23T03:52:39;100197.34;;;5.68;98.87
44663;BME280;30381;52.754;18.258;2023-04-23T03:55:05;100196.59;;;5.70;99.03
44663;BME280;30381;52.754;18.258;2023-04-23T03:57:32;100197.80;;;5.70;99.15
44663;BME280;30381;52.754;18.258;2023-04-23T04:00:00;100197.16;;;5.72;99.37
44663;BME280;30381;52.754;18.258;2023-04-23T04:02:26;100195.84;;;5.74;99.38
44663;BME280;30381;52.754;18.258;2023-04-23T04:04:53;100199.21;;;5.77;99.51
44663;BME280;30381;52.754;18.258;2023-04-23T04:07:19;100198.86;;;5.79;99.60
44663;BME280;30381;52.754;18.258;2023-04-23T04:09:46;100200.48;;;5.83;99.81
44663;BME280;30381;52.754;18.258;2023-04-23T04:12:14;100200.73;;;5.87;99.92
44663;BME280;30381;52.754;18.258;2023-04-23T04:14:41;100202.68;;;6.20;100.00
44663;BME280;30381;52.754;18.258;2023-04-23T04:17:07;100203.69;;;7.05;100.00
44663;BME280;30381;52.754;18.258;2023-04-23T04:19:34;100205.05;;;7.80;100.00
44663;BME280;30381;52.754;18.258;2023-04-23T04:22:00;100195.61;;;8.69;100.00
44663;BME280;30381;52.754;18.258;2023-04-23T04:24:28;100193.66;;;9.55;100.00
44663;BME280;30381;52.754;18.258;2023-04-23T04:26:58;100188.35;;;10.41;99.73
44663;BME280;30381;52.754;18.258;2023-04-23T04:29:27;100190.74;;;11.23;98.46
44663;BME280;30381;52.754;18.258;2023-04-23T04:31:53;100182.64;;;11.95;97.12
44663;BME280;30381;52.754;18.258;2023-04-23T04:34:20;100184.00;;;12.65;96.20
44663;BME280;30381;52.754;18.258;2023-04-23T04:36:46;100182.70;;;13.31;94.85
44663;BME280;30381;52.754;18.258;2023-04-23T04:39:12;100175.38;;;13.92;93.62
44663;BME280;30381;52.754;18.258;2023-04-23T04:41:45;100174.88;;;14.54;92.61
44663;BME280;30381;52.754;18.258;2023-04-23T04:44:13;100178.39;;;15.17;92.28
44663;BME280;30381;52.754;18.258;2023-04-23T04:46:39;100177.39;;;15.78;91.01
44663;BME280;30381;52.754;18.258;2023-04-23T04:49:11;100173.21;;;16.32;89.76
44663;BME280;30381;52.754;18.258;2023-04-23T04:51:38;100174.84;;;16.67;87.94
44663;BME280;30381;52.754;18.258;2023-04-23T04:54:04;100177.37;;;17.03;87.51
44663;BME280;30381;52.754;18.258;2023-04-23T04:56:34;100172.48;;;17.46;87.15
44663;BME280;30381;52.754;18.258;2023-04-23T04:59:01;100166.02;;;17.83;85.39
44663;BME280;30381;52.754;18.258;2023-04-23T05:01:28;100166.83;;;18.14;85.03
44663;BME280;30381;52.754;18.258;2023-04-23T05:03:55;100160.54;;;18.52;84.22
44663;BME280;30381;52.754;18.258;2023-04-23T05:06:21;100163.41;;;18.81;82.72
44663;BME280;30381;52.754;18.258;2023-04-23T05:08:49;100161.96;;;19.12;82.24
44663;BME280;30381;52.754;18.258;2023-04-23T05:11:17;100159.48;;;19.42;80.73
44663;BME280;30381;52.754;18.258;2023-04-23T05:13:44;100161.91;;;19.51;79.68
44663;BME280;30381;52.754;18.258;2023-04-23T05:16:10;100161.27;;;19.74;78.86
44663;BME280;30381;52.754;18.258;2023-04-23T05:18:40;100157.45;;;19.93;78.00
44663;BME280;30381;52.754;18.258;2023-04-23T05:21:07;100152.30;;;20.14;78.10
44663;BME280;30381;52.754;18.258;2023-04-23T05:23:34;100157.27;;;20.36;76.32
44663;BME280;30381;52.754;18.258;2023-04-23T05:26:00;100156.80;;;20.41;75.84
44663;BME280;30381;52.754;18.258;2023-04-23T05:28:29;100152.86;;;20.52;73.86
44663;BME280;30381;52.754;18.258;2023-04-23T05:30:56;100153.97;;;20.49;73.53
44663;BME280;30381;52.754;18.258;2023-04-23T05:33:23;100161.14;;;20.54;72.24
44663;BME280;30381;52.754;18.258;2023-04-23T05:35:55;100159.25;;;20.51;71.68
44663;BME280;30381;52.754;18.258;2023-04-23T05:38:22;100158.53;;;20.55;71.28
44663;BME280;30381;52.754;18.258;2023-04-23T05:40:48;100154.67;;;20.56;70.45
44663;BME280;30381;52.754;18.258;2023-04-23T05:43:14;100162.60;;;20.60;70.05
44663;BME280;30381;52.754;18.258;2023-04-23T05:45:40;100161.69;;;20.69;69.53
44663;BME280;30381;52.754;18.258;2023-04-23T05:48:06;100162.86;;;20.65;68.27
44663;BME280;30381;52.754;18.258;2023-04-23T05:50:33;100160.09;;;20.67;68.81
44663;BME280;30381;52.754;18.258;2023-04-23T05:52:59;100163.88;;;20.89;68.93
44663;BME280;30381;52.754;18.258;2023-04-23T05:55:25;100161.34;;;21.14;68.61
44663;BME280;30381;52.754;18.258;2023-04-23T05:57:52;100159.46;;;21.35;67.27
44663;BME280;30381;52.754;18.258;2023-04-23T06:00:18;100159.42;;;21.34;66.16
44663;BME280;30381;52.754;18.258;2023-04-23T06:02:44;100159.66;;;21.37;65.92
44663;BME280;30381;52.754;18.258;2023-04-23T06:05:10;100162.51;;;21.55;66.29
44663;BME280;30381;52.754;18.258;2023-04-23T06:07:36;100155.79;;;21.84;65.21
44663;BME280;30381;52.754;18.258;2023-04-23T06:10:03;100157.46;;;21.88;63.98
44663;BME280;30381;52.754;18.258;2023-04-23T06:12:32;100154.57;;;21.96;64.38
44663;BME280;30381;52.754;18.258;2023-04-23T06:14:58;100157.11;;;22.17;64.16
44663;BME280;30381;52.754;18.258;2023-04-23T06:17:24;100156.15;;;22.34;62.77
44663;BME280;30381;52.754;18.258;2023-04-23T06:19:50;100155.27;;;22.33;61.80
44663;BME280;30381;52.754;18.258;2023-04-23T06:22:16;100152.23;;;22.29;60.87
44663;BME280;30381;52.754;18.258;2023-04-23T06:24:42;100150.52;;;22.10;59.79
44663;BME280;30381;52.754;18.258;2023-04-23T06:27:08;100150.78;;;21.96;59.47
44663;BME280;30381;52.754;18.258;2023-04-23T06:29:35;100150.27;;;21.95;59.48
44663;BME280;30381;52.754;18.258;2023-04-23T06:32:02;100152.88;;;22.03;59.39
44663;BME280;30381;52.754;18.258;2023-04-23T06:34:29;100146.21;;;21.94;57.70
44663;BME280;30381;52.754;18.258;2023-04-23T06:36:55;100147.04;;;21.72;57.82
44663;BME280;30381;52.754;18.258;2023-04-23T06:39:21;100151.17;;;21.68;58.00
44663;BME280;30381;52.754;18.258;2023-04-23T06:41:48;100150.92;;;21.73;57.85
44663;BME280;30381;52.754;18.258;2023-04-23T06:44:14;100146.86;;;21.81;57.37
44663;BME280;30381;52.754;18.258;2023-04-23T06:46:40;100146.99;;;21.96;58.21
44663;BME280;30381;52.754;18.258;2023-04-23T06:49:06;100142.77;;;22.18;56.73
44663;BME280;30381;52.754;18.258;2023-04-23T06:51:33;100145.37;;;22.15;56.03
44663;BME280;30381;52.754;18.258;2023-04-23T06:54:00;100145.69;;;22.08;56.31
44663;BME280;30381;52.754;18.258;2023-04-23T06:56:26;100145.42;;;22.11;56.05
44663;BME280;30381;52.754;18.258;2023-04-23T06:58:52;100143.74;;;22.19;56.50
44663;BME280;30381;52.754;18.258;2023-04-23T07:01:19;100137.73;;;22.43;56.87
44663;BME280;30381;52.754;18.258;2023-04-23T07:03:45;100132.89;;;22.47;55.26
44663;BME280;30381;52.754;18.258;2023-04-23T07:06:16;100136.23;;;22.09;54.41
44663;BME280;30381;52.754;18.258;2023-04-23T07:08:43;100134.02;;;22.02;55.59
44663;BME280;30381;52.754;18.258;2023-04-23T07:11:10;100134.61;;;22.22;55.62
44663;BME280;30381;52.754;18.258;2023-04-23T07:13:37;100128.20;;;22.29;55.01
44663;BME280;30381;52.754;18.258;2023-04-23T07:16:04;100130.05;;;22.29;54.83
44663;BME280;30381;52.754;18.258;2023-04-23T07:18:30;100127.42;;;22.14;54.37
44663;BME280;30381;52.754;18.258;2023-04-23T07:20:57;100130.11;;;22.20;55.14
44663;BME280;30381;52.754;18.258;2023-04-23T07:23:23;100129.20;;;22.26;54.49
44663;BME280;30381;52.754;18.258;2023-04-23T07:25:49;100123.14;;;22.17;53.78
44663;BME280;30381;52.754;18.258;2023-04-23T07:28:15;100119.15;;;21.90;53.78
44663;BME280;30381;52.754;18.258;2023-04-23T07:30:41;100116.65;;;21.74;54.14
44663;BME280;30381;52.754;18.258;2023-04-23T07:33:07;100113.64;;;21.70;53.87
44663;BME280;30381;52.754;18.258;2023-04-23T07:35:33;100113.06;;;21.63;53.95
44663;BME280;30381;52.754;18.258;2023-04-23T07:37:59;100112.58;;;21.56;53.71
44663;BME280;30381;52.754;18.258;2023-04-23T07:40:26;100109.50;;;21.58;53.68
44663;BME280;30381;52.754;18.258;2023-04-23T07:42:52;100105.39;;;21.72;53.60
44663;BME280;30381;52.754;18.258;2023-04-23T07:45:18;100105.16;;;21.90;54.30
44663;BME280;30381;52.754;18.258;2023-04-23T07:47:44;100104.75;;;22.21;54.32
44663;BME280;30381;52.754;18.258;2023-04-23T07:50:11;100099.66;;;22.43;54.02
44663;BME280;30381;52.754;18.258;2023-04-23T07:52:38;100099.09;;;22.53;53.34
44663;BME280;30381;52.754;18.258;2023-04-23T07:55:05;100097.41;;;22.63;53.39
44663;BME280;30381;52.754;18.258;2023-04-23T07:57:31;100092.65;;;22.79;53.32
44663;BME280;30381;52.754;18.258;2023-04-23T07:59:57;100091.33;;;22.88;52.78
44663;BME280;30381;52.754;18.258;2023-04-23T08:02:23;100090.35;;;22.91;52.33
44663;BME280;30381;52.754;18.258;2023-04-23T08:04:57;100088.29;;;22.89;52.09
44663;BME280;30381;52.754;18.258;2023-04-23T08:07:23;100088.28;;;22.91;52.40
44663;BME280;30381;52.754;18.258;2023-04-23T08:09:51;100087.40;;;23.05;52.40
44663;BME280;30381;52.754;18.258;2023-04-23T08:12:18;100087.75;;;23.20;52.25
44663;BME280;30381;52.754;18.258;2023-04-23T08:14:44;100090.60;;;23.34;51.52
44663;BME280;30381;52.754;18.258;2023-04-23T08:17:12;100086.98;;;23.24;50.61
44663;BME280;30381;52.754;18.258;2023-04-23T08:19:38;100086.27;;;23.12;50.20
44663;BME280;30381;52.754;18.258;2023-04-23T08:22:04;100082.52;;;23.08;50.00
44663;BME280;30381;52.754;18.258;2023-04-23T08:24:30;100082.63;;;23.08;50.38
44663;BME280;30381;52.754;18.258;2023-04-23T08:26:56;100077.68;;;23.22;50.16
44663;BME280;30381;52.754;18.258;2023-04-23T08:29:22;100079.08;;;23.32;50.05
44663;BME280;30381;52.754;18.258;2023-04-23T08:31:48;100074.96;;;23.39;50.01
44663;BME280;30381;52.754;18.258;2023-04-23T08:34:14;100073.09;;;23.46;49.37
44663;BME280;30381;52.754;18.258;2023-04-23T09:08:29;100036.63;;;24.12;45.47
44663;BME280;30381;52.754;18.258;2023-04-23T09:11:36;100039.42;;;24.14;45.81
44663;BME280;30381;52.754;18.258;2023-04-23T09:17:51;100026.65;;;24.35;44.93
44663;BME280;30381;52.754;18.258;2023-04-23T09:20:22;100029.45;;;24.43;44.37
44663;BME280;30381;52.754;18.258;2023-04-23T09:23:13;100026.89;;;24.44;44.20
44663;BME280;30381;52.754;18.258;2023-04-23T09:25:40;100023.65;;;24.49;43.27
44663;BME280;30381;52.754;18.258;2023-04-23T09:28:11;100019.03;;;24.50;42.37
44663;BME280;30381;52.754;18.258;2023-04-23T09:31:04;100017.45;;;24.53;42.34
44663;BME280;30381;52.754;18.258;2023-04-23T09:33:54;100013.89;;;24.52;41.22
44663;BME280;30381;52.754;18.258;2023-04-23T09:36:31;100010.69;;;24.53;40.34
44663;BME280;30381;52.754;18.258;2023-04-23T09:39:38;100006.73;;;24.50;40.35
44663;BME280;30381;52.754;18.258;2023-04-23T09:43:19;100005.43;;;24.61;40.18
44663;BME280;30381;52.754;18.258;2023-04-23T10:30:49;99948.15;;;25.65;35.51
44663;BME280;30381;52.754;18.258;2023-04-23T10:33:36;99948.34;;;25.68;35.22
44663;BME280;30381;52.754;18.258;2023-04-23T10:36:02;99947.91;;;25.59;34.88
44663;BME280;30381;52.754;18.258;2023-04-23T10:38:29;99943.84;;;25.47;34.78
44663;BME280;30381;52.754;18.258;2023-04-23T10:40:57;99940.17;;;25.41;35.28
44663;BME280;30381;52.754;18.258;2023-04-23T10:43:24;99944.90;;;25.43;35.34
44663;BME280;30381;52.754;18.258;2023-04-23T10:45:50;99944.44;;;25.48;35.46
44663;BME280;30381;52.754;18.258;2023-04-23T10:48:16;99940.85;;;25.55;35.16
44663;BME280;30381;52.754;18.258;2023-04-23T10:50:43;99937.04;;;25.57;35.21
44663;BME280;30381;52.754;18.258;2023-04-23T10:53:19;99929.09;;;25.61;35.00
44663;BME280;30381;52.754;18.258;2023-04-23T10:56:07;99925.83;;;25.57;34.85
44663;BME280;30381;52.754;18.258;2023-04-23T10:58:49;99929.83;;;25.43;34.76
44663;BME280;30381;52.754;18.258;2023-04-23T11:01:19;99931.48;;;25.46;35.17
44663;BME280;30381;52.754;18.258;2023-04-23T11:03:50;99933.08;;;25.54;34.70
44663;BME280;30381;52.754;18.258;2023-04-23T11:09:50;99927.35;;;25.58;33.73
44663;BME280;30381;52.754;18.258;2023-04-23T11:14:55;99918.81;;;25.69;33.67
44663;BME280;30381;52.754;18.258;2023-04-23T11:22:42;99912.60;;;25.67;33.63
44663;BME280;30381;52.754;18.258;2023-04-23T11:25:11;99908.34;;;25.65;33.00
44663;BME280;30381;52.754;18.258;2023-04-23T11:27:39;99909.88;;;25.58;32.68
44663;BME280;30381;52.754;18.258;2023-04-23T11:30:23;99911.52;;;25.58;33.37
44663;BME280;30381;52.754;18.258;2023-04-23T11:32:51;99906.64;;;25.67;33.18
44663;BME280;30381;52.754;18.258;2023-04-23T11:35:24;99901.35;;;25.70;33.16
44663;BME280;30381;52.754;18.258;2023-04-23T11:37:55;99901.25;;;25.78;33.54
44663;BME280;30381;52.754;18.258;2023-04-23T11:40:31;99898.45;;;25.82;33.04
44663;BME280;30381;52.754;18.258;2023-04-23T11:43:18;99896.32;;;25.83;32.91
44663;BME280;30381;52.754;18.258;2023-04-23T11:45:45;99896.61;;;25.85;33.00
44663;BME280;30381;52.754;18.258;2023-04-23T11:48:12;99893.06;;;25.88;32.86
44663;BME280;30381;52.754;18.258;2023-04-23T11:50:40;99890.45;;;25.88;32.47
44663;BME280;30381;52.754;18.258;2023-04-23T11:53:10;99886.44;;;25.83;32.43
44663;BME280;30381;52.754;18.258;2023-04-23T11:55:37;99888.11;;;25.83;32.78
44663;BME280;30381;52.754;18.258;2023-04-23T11:58:03;99889.85;;;25.89;32.87
44663;BME280;30381;52.754;18.258;2023-04-23T12:00:29;99890.96;;;25.99;33.10
44663;BME280;30381;52.754;18.258;2023-04-23T12:03:02;99889.29;;;26.04;32.53
44663;BME280;30381;52.754;18.258;2023-04-23T12:05:35;99891.85;;;25.99;32.10
44663;BME280;30381;52.754;18.258;2023-04-23T12:08:11;99890.05;;;25.97;32.01
44663;BME280;30381;52.754;18.258;2023-04-23T12:10:44;99883.89;;;25.89;31.72
44663;BME280;30381;52.754;18.258;2023-04-23T12:13:21;99885.98;;;25.75;31.80
44663;BME280;30381;52.754;18.258;2023-04-23T12:15:53;99886.91;;;25.71;32.36
44663;BME280;30381;52.754;18.258;2023-04-23T12:18:28;99884.77;;;25.74;32.16
44663;BME280;30381;52.754;18.258;2023-04-23T12:21:16;99872.66;;;25.80;32.28
44663;BME280;30381;52.754;18.258;2023-04-23T12:23:44;99872.75;;;25.79;32.10
44663;BME280;30381;52.754;18.258;2023-04-23T12:26:11;99872.63;;;25.78;31.86
44663;BME280;30381;52.754;18.258;2023-04-23T12:28:46;99871.81;;;25.78;31.71
44663;BME280;30381;52.754;18.258;2023-04-23T12:31:19;99870.27;;;25.79;32.13
44663;BME280;30381;52.754;18.258;2023-04-23T12:33:46;99862.25;;;25.93;32.50
44663;BME280;30381;52.754;18.258;2023-04-23T12:36:14;99860.11;;;25.96;32.46
44663;BME280;30381;52.754;18.258;2023-04-23T12:38:41;99856.21;;;25.95;32.26
44663;BME280;30381;52.754;18.258;2023-04-23T12:41:07;99855.66;;;25.98;32.26
44663;BME280;30381;52.754;18.258;2023-04-23T12:43:34;99856.73;;;25.99;32.36
44663;BME280;30381;52.754;18.258;2023-04-23T12:46:01;99853.32;;;26.02;32.25
44663;BME280;30381;52.754;18.258;2023-04-23T12:48:27;99853.20;;;25.97;32.31
44663;BME280;30381;52.754;18.258;2023-04-23T12:50:53;99858.23;;;25.93;32.29
44663;BME280;30381;52.754;18.258;2023-04-23T12:53:19;99852.48;;;25.94;32.54
44663;BME280;30381;52.754;18.258;2023-04-23T12:55:45;99851.92;;;25.88;31.86
44663;BME280;30381;52.754;18.258;2023-04-23T12:58:13;99847.27;;;25.76;31.74
44663;BME280;30381;52.754;18.258;2023-04-23T13:00:39;99845.11;;;25.69;31.91
44663;BME280;30381;52.754;18.258;2023-04-23T13:03:05;99840.23;;;25.77;32.19
44663;BME280;30381;52.754;18.258;2023-04-23T13:05:31;99841.34;;;25.86;32.24
44663;BME280;30381;52.754;18.258;2023-04-23T13:07:57;99842.86;;;25.90;31.93
44663;BME280;30381;52.754;18.258;2023-04-23T13:10:24;99840.70;;;25.89;31.88
44663;BME280;30381;52.754;18.258;2023-04-23T13:12:50;99837.13;;;25.85;31.83
44663;BME280;30381;52.754;18.258;2023-04-23T13:15:16;99834.05;;;25.89;32.41
44663;BME280;30381;52.754;18.258;2023-04-23T13:17:44;99835.48;;;25.98;32.41
44663;BME280;30381;52.754;18.258;2023-04-23T13:20:10;99831.31;;;25.99;31.77
44663;BME280;30381;52.754;18.258;2023-04-23T13:22:37;99834.86;;;25.89;31.46
44663;BME280;30381;52.754;18.258;2023-04-23T13:25:03;99832.05;;;25.81;31.73
44663;BME280;30381;52.754;18.258;2023-04-23T13:27:29;99828.48;;;25.83;31.75
44663;BME280;30381;52.754;18.258;2023-04-23T13:29:56;99828.55;;;25.90;32.21
44663;BME280;30381;52.754;18.258;2023-04-23T13:32:22;99825.43;;;25.88;32.13
44663;BME280;30381;52.754;18.258;2023-04-23T13:34:53;99823.67;;;25.90;32.37
44663;BME280;30381;52.754;18.258;2023-04-23T13:37:19;99821.98;;;25.93;32.34
44663;BME280;30381;52.754;18.258;2023-04-23T13:39:47;99824.30;;;25.93;32.39
44663;BME280;30381;52.754;18.258;2023-04-23T13:42:13;99818.84;;;25.78;32.39
44663;BME280;30381;52.754;18.258;2023-04-23T13:44:40;99817.52;;;25.58;32.59
44663;BME280;30381;52.754;18.258;2023-04-23T13:47:06;99816.64;;;25.50;32.44
44663;BME280;30381;52.754;18.258;2023-04-23T13:49:33;99816.19;;;25.25;32.70
44663;BME280;30381;52.754;18.258;2023-04-23T13:51:59;99814.88;;;25.04;32.95
44663;BME280;30381;52.754;18.258;2023-04-23T13:54:29;99816.25;;;24.91;33.17
44663;BME280;30381;52.754;18.258;2023-04-23T13:56:57;99814.80;;;24.99;33.24
44663;BME280;30381;52.754;18.258;2023-04-23T13:59:24;99813.11;;;25.09;33.55
44663;BME280;30381;52.754;18.258;2023-04-23T14:01:50;99810.91;;;25.14;33.28
44663;BME280;30381;52.754;18.258;2023-04-23T14:04:17;99812.32;;;25.11;33.47
44663;BME280;30381;52.754;18.258;2023-04-23T14:06:44;99812.30;;;25.10;33.54
44663;BME280;30381;52.754;18.258;2023-04-23T14:09:10;99807.78;;;25.05;33.85
44663;BME280;30381;52.754;18.258;2023-04-23T14:11:39;99810.41;;;24.94;33.96
44663;BME280;30381;52.754;18.258;2023-04-23T14:14:06;99816.77;;;24.78;33.91
44663;BME280;30381;52.754;18.258;2023-04-23T14:16:32;99815.66;;;24.65;34.11
44663;BME280;30381;52.754;18.258;2023-04-23T14:18:58;99816.45;;;24.62;34.43
44663;BME280;30381;52.754;18.258;2023-04-23T14:21:25;99812.78;;;24.61;34.82
44663;BME280;30381;52.754;18.258;2023-04-23T14:24:00;99815.30;;;24.63;35.01